createdAt,value
2023-06-14T00:01:10.891Z,83.40
2023-06-14T00:03:40.732Z,83.90
2023-06-14T00:06:09.571Z,83.90
2023-06-14T00:08:37.851Z,84.10
2023-06-14T00:11:06.609Z,84.10
2023-06-14T00:13:38.240Z,84.70
2023-06-14T00:16:09.653Z,84.80
2023-06-14T00:18:39.863Z,85.30
2023-06-14T00:21:08.554Z,86.10
2023-06-14T00:23:36.724Z,86.40
2023-06-14T00:26:05.924Z,87.00
2023-06-14T00:28:35.067Z,87.10
2023-06-14T00:31:03.894Z,87.60
2023-06-14T00:33:33.584Z,88.20
2023-06-14T00:36:02.150Z,87.90
2023-06-14T00:38:33.158Z,88.20
2023-06-14T00:41:02.243Z,88.10
2023-06-14T00:43:30.700Z,88.20
2023-06-14T00:45:59.908Z,88.20
2023-06-14T00:48:30.163Z,87.80
2023-06-14T00:51:07.900Z,88.00
2023-06-14T00:53:37.458Z,88.30
2023-06-14T00:56:06.532Z,88.40
2023-06-14T00:58:35.963Z,88.40
2023-06-14T01:01:05.864Z,88.60
2023-06-14T01:03:36.676Z,88.50
2023-06-14T01:06:28.946Z,88.80
2023-06-14T01:09:12.173Z,88.70
2023-06-14T01:11:53.335Z,89.20
2023-06-14T01:14:23.796Z,89.30
2023-06-14T01:16:54.494Z,89.00
2023-06-14T01:19:26.811Z,89.10
2023-06-14T01:21:58.928Z,89.10
2023-06-14T01:24:33.533Z,89.90
2023-06-14T01:27:05.267Z,89.50
2023-06-14T01:29:34.867Z,89.50
2023-06-14T01:32:06.689Z,89.40
2023-06-14T01:34:36.039Z,89.20
2023-06-14T01:37:06.028Z,88.70
2023-06-14T01:39:37.209Z,89.40
2023-06-14T01:42:08.785Z,89.60
2023-06-14T01:44:37.634Z,90.10
2023-06-14T01:47:07.554Z,90.00
2023-06-14T01:49:37.528Z,90.00
2023-06-14T01:52:07.151Z,89.80
2023-06-14T01:54:38.834Z,90.00
2023-06-14T01:57:08.691Z,90.00
2023-06-14T01:59:37.603Z,90.10
2023-06-14T02:02:06.928Z,90.40
2023-06-14T02:04:35.821Z,90.50
2023-06-14T02:07:04.524Z,90.50
2023-06-14T02:09:33.720Z,90.60
2023-06-14T02:12:04.667Z,90.90
2023-06-14T02:14:33.505Z,90.90
2023-06-14T02:17:02.882Z,90.70
2023-06-14T02:19:32.690Z,90.50
2023-06-14T02:22:01.712Z,90.50
2023-06-14T02:24:29.998Z,90.50
2023-06-14T02:26:59.070Z,90.50
2023-06-14T02:29:29.094Z,90.70
2023-06-14T02:31:57.650Z,90.60
2023-06-14T02:34:26.319Z,90.50
2023-06-14T02:36:54.984Z,90.40
2023-06-14T02:39:25.291Z,90.40
2023-06-14T02:42:09.125Z,90.80
2023-06-14T02:44:45.234Z,90.70
2023-06-14T02:47:14.073Z,90.80
2023-06-14T02:49:43.687Z,90.90
2023-06-14T02:52:19.386Z,91.00
2023-06-14T02:54:48.562Z,91.00
2023-06-14T02:57:17.918Z,91.10
2023-06-14T02:59:49.406Z,91.20
2023-06-14T03:02:18.982Z,91.20
2023-06-14T03:04:48.683Z,91.40
2023-06-14T03:07:21.021Z,91.70
2023-06-14T03:09:52.402Z,91.80
2023-06-14T03:12:25.167Z,91.80
2023-06-14T03:14:59.577Z,91.90
2023-06-14T03:17:33.601Z,92.40
2023-06-14T03:20:04.222Z,92.10
2023-06-14T03:22:34.563Z,92.20
2023-06-14T03:25:05.774Z,92.10
2023-06-14T03:27:38.584Z,92.10
2023-06-14T03:30:11.492Z,92.10
2023-06-14T03:32:40.600Z,92.20
2023-06-14T03:35:11.615Z,92.70
2023-06-14T03:37:41.163Z,92.60
2023-06-14T03:40:11.184Z,92.60
2023-06-14T03:42:45.693Z,92.80
2023-06-14T03:45:16.414Z,92.80
2023-06-14T03:47:44.965Z,93.00
2023-06-14T03:50:14.989Z,93.10
2023-06-14T03:52:45.798Z,93.70
2023-06-14T03:57:49.176Z,94.00
2023-06-14T04:00:22.340Z,94.00
2023-06-14T04:02:51.336Z,93.90
2023-06-14T04:05:21.521Z,94.40
2023-06-14T04:07:51.943Z,94.10
2023-06-14T04:10:22.050Z,94.20
2023-06-14T04:12:52.011Z,94.30
2023-06-14T04:15:23.151Z,94.20
2023-06-14T04:17:58.285Z,94.00
2023-06-14T04:20:28.064Z,94.00
2023-06-14T04:23:02.608Z,93.90
2023-06-14T04:25:33.650Z,94.20
2023-06-14T04:28:03.167Z,94.20
2023-06-14T04:30:33.802Z,94.30
2023-06-14T04:33:07.152Z,94.50
2023-06-14T04:35:38.426Z,94.70
2023-06-14T04:38:10.356Z,94.50
2023-06-14T04:40:44.021Z,94.50
2023-06-14T04:43:26.427Z,94.60
2023-06-14T04:45:57.884Z,94.30
2023-06-14T04:48:27.735Z,93.80
2023-06-14T04:50:57.760Z,93.80
2023-06-14T04:53:30.232Z,93.70
2023-06-14T04:55:59.966Z,93.50
2023-06-14T04:58:29.082Z,93.40
2023-06-14T05:01:00.602Z,93.30
2023-06-14T05:03:31.821Z,93.40
2023-06-14T05:06:01.891Z,93.40
2023-06-14T05:08:31.847Z,94.10
2023-06-14T05:11:00.776Z,93.50
2023-06-14T05:13:29.957Z,93.20
2023-06-14T05:16:00.461Z,93.20
2023-06-14T05:18:29.945Z,93.00
2023-06-14T05:20:58.634Z,93.50
2023-06-14T05:23:27.541Z,93.60
2023-06-14T05:25:56.240Z,93.60
2023-06-14T05:28:24.927Z,93.50
2023-06-14T05:30:54.538Z,93.30
2023-06-14T05:33:25.240Z,93.20
2023-06-14T05:35:54.088Z,93.60
2023-06-14T05:38:22.758Z,93.30
2023-06-14T05:40:51.548Z,93.60
2023-06-14T05:43:19.990Z,93.70
2023-06-14T05:45:48.479Z,92.40
2023-06-14T05:48:18.137Z,92.40
2023-06-14T05:50:48.857Z,91.90
2023-06-14T05:53:18.012Z,93.00
2023-06-14T05:55:46.838Z,93.70
2023-06-14T05:58:15.612Z,93.00
2023-06-14T06:00:44.244Z,92.60
2023-06-14T06:03:14.263Z,92.50
2023-06-14T06:05:46.017Z,92.00
2023-06-14T06:08:18.042Z,91.80
2023-06-14T06:10:47.613Z,92.10
2023-06-14T06:13:16.572Z,91.70
2023-06-14T06:15:46.383Z,91.80
2023-06-14T06:18:15.192Z,91.80
2023-06-14T06:20:45.099Z,91.60
2023-06-14T06:23:14.058Z,91.70
2023-06-14T06:25:44.829Z,90.90
2023-06-14T06:28:13.273Z,90.70
2023-06-14T06:30:42.149Z,90.80
2023-06-14T06:33:10.870Z,91.00
2023-06-14T06:35:39.866Z,90.90
2023-06-14T06:38:08.442Z,91.30
2023-06-14T06:40:37.677Z,90.90
2023-06-14T06:43:07.777Z,91.20
2023-06-14T06:45:43.668Z,90.30
2023-06-14T06:48:13.558Z,90.30
2023-06-14T06:50:41.991Z,90.30
2023-06-14T06:53:10.983Z,90.80
2023-06-14T06:55:39.952Z,90.90
2023-06-14T06:58:10.464Z,90.50
2023-06-14T07:00:38.856Z,90.80
2023-06-14T07:03:08.174Z,90.80
2023-06-14T07:05:37.038Z,90.30
2023-06-14T07:08:06.292Z,90.10
2023-06-14T07:10:34.672Z,90.00
2023-06-14T07:13:03.172Z,90.20
2023-06-14T07:15:33.717Z,90.00
2023-06-14T07:18:02.263Z,90.00
2023-06-14T07:20:32.526Z,90.20
2023-06-14T07:23:01.385Z,90.20
2023-06-14T07:25:29.897Z,90.20
2023-06-14T07:27:58.653Z,89.20
2023-06-14T07:30:28.249Z,89.90
2023-06-14T07:32:59.270Z,90.00
2023-06-14T07:35:28.421Z,90.10
2023-06-14T07:37:57.236Z,89.90
2023-06-14T07:40:27.054Z,89.80
2023-06-14T07:42:56.238Z,89.80
2023-06-14T07:45:25.123Z,89.50
2023-06-14T07:47:54.547Z,90.00
2023-06-14T07:50:25.605Z,90.10
2023-06-14T07:52:54.330Z,88.90
2023-06-14T07:55:23.297Z,89.70
2023-06-14T07:57:51.946Z,89.70
2023-06-14T08:00:22.144Z,89.60
2023-06-14T08:02:56.995Z,89.90
2023-06-14T08:05:30.129Z,89.30
2023-06-14T08:07:58.895Z,88.70
2023-06-14T08:10:27.585Z,88.90
2023-06-14T08:12:56.046Z,89.30
2023-06-14T08:15:24.661Z,88.50
2023-06-14T08:17:53.381Z,89.30
2023-06-14T08:20:22.344Z,88.00
2023-06-14T08:22:56.454Z,86.40
2023-06-14T08:25:25.973Z,87.10
2023-06-14T08:27:54.409Z,86.00
2023-06-14T08:30:23.297Z,85.50
2023-06-14T08:32:59.181Z,84.50
2023-06-14T08:35:41.807Z,82.70
2023-06-14T08:38:13.236Z,83.00
2023-06-14T08:40:44.288Z,82.10
2023-06-14T08:43:13.350Z,83.30
2023-06-14T08:45:42.385Z,83.00
2023-06-14T08:48:13.086Z,82.80
2023-06-14T08:50:44.612Z,83.60
2023-06-14T08:53:21.148Z,83.80
2023-06-14T08:55:51.966Z,83.80
2023-06-14T08:58:20.997Z,83.50
2023-06-14T09:00:50.764Z,82.10
2023-06-14T09:03:22.155Z,81.30
2023-06-14T09:05:53.339Z,80.40
2023-06-14T09:08:23.688Z,81.30
2023-06-14T09:10:53.062Z,81.70
2023-06-14T09:13:21.738Z,81.30
2023-06-14T09:15:50.491Z,81.80
2023-06-14T09:18:21.524Z,80.00
2023-06-14T09:20:50.707Z,80.00
2023-06-14T09:23:24.789Z,80.70
2023-06-14T09:25:53.828Z,80.40
2023-06-14T09:28:24.253Z,81.00
2023-06-14T09:30:53.584Z,80.70
2023-06-14T09:33:22.436Z,80.10
2023-06-14T09:35:54.758Z,79.80
2023-06-14T09:38:24.537Z,79.00
2023-06-14T09:40:53.787Z,78.60
2023-06-14T09:43:23.744Z,78.10
2023-06-14T09:45:54.050Z,77.20
2023-06-14T09:48:24.813Z,78.20
2023-06-14T09:50:54.277Z,76.30
2023-06-14T09:53:27.437Z,76.60
2023-06-14T09:56:00.075Z,76.10
2023-06-14T09:58:33.469Z,74.50
2023-06-14T10:01:02.908Z,76.00
2023-06-14T10:03:44.333Z,75.30
2023-06-14T10:06:25.348Z,75.70
2023-06-14T10:09:00.869Z,75.20
2023-06-14T10:11:30.853Z,75.00
2023-06-14T10:14:01.986Z,74.10
2023-06-14T10:16:37.455Z,74.00
2023-06-14T10:19:19.901Z,73.80
2023-06-14T10:22:00.701Z,74.00
2023-06-14T10:24:40.342Z,72.70
2023-06-14T10:27:12.397Z,73.20
2023-06-14T10:30:06.630Z,72.70
2023-06-14T10:32:35.471Z,73.00
2023-06-14T10:35:08.479Z,74.00
2023-06-14T10:37:37.410Z,74.50
2023-06-14T10:40:11.366Z,75.30
2023-06-14T10:42:40.639Z,75.10
2023-06-14T10:45:15.727Z,74.30
2023-06-14T10:47:44.736Z,73.20
2023-06-14T10:50:17.741Z,73.90
2023-06-14T10:52:47.526Z,72.70
2023-06-14T10:55:19.586Z,72.20
2023-06-14T10:57:53.602Z,72.80
2023-06-14T11:00:28.616Z,73.10
2023-06-14T11:03:45.236Z,72.50
2023-06-14T11:06:19.918Z,71.90
2023-06-14T11:09:39.293Z,71.10
2023-06-14T11:12:14.019Z,71.00
2023-06-14T11:14:42.826Z,70.20
2023-06-14T11:17:16.343Z,68.90
2023-06-14T11:19:46.610Z,68.20
2023-06-14T11:22:17.021Z,67.30
2023-06-14T11:24:47.470Z,66.90
2023-06-14T11:27:18.140Z,66.40
2023-06-14T11:29:51.860Z,62.70
2023-06-14T11:32:20.624Z,63.20
2023-06-14T11:34:51.837Z,60.30
2023-06-14T11:37:22.934Z,58.20
2023-06-14T11:39:51.702Z,57.90
2023-06-14T11:42:22.046Z,59.00
2023-06-14T11:44:54.232Z,59.20
2023-06-14T11:47:26.581Z,58.40
2023-06-14T11:49:55.706Z,58.40
2023-06-14T11:52:24.743Z,57.80
2023-06-14T11:54:54.616Z,57.90
2023-06-14T11:57:26.286Z,56.80
2023-06-14T11:59:57.479Z,56.80
2023-06-14T12:02:30.882Z,56.10
2023-06-14T12:05:08.918Z,55.60
2023-06-14T12:07:38.968Z,55.20
2023-06-14T12:10:11.697Z,53.90
2023-06-14T12:12:43.405Z,54.10
2023-06-14T12:15:13.975Z,53.70
2023-06-14T12:17:45.663Z,52.60
2023-06-14T12:20:17.548Z,53.50
2023-06-14T12:22:57.498Z,51.40
2023-06-14T12:25:29.615Z,51.40
2023-06-14T12:28:01.295Z,51.10
2023-06-14T12:30:29.797Z,51.50
2023-06-14T12:32:59.847Z,51.80
2023-06-14T12:35:28.307Z,51.70
2023-06-14T12:37:57.488Z,51.70
2023-06-14T12:40:26.627Z,52.20
2023-06-14T12:42:55.584Z,52.20
2023-06-14T12:45:25.507Z,51.30
2023-06-14T12:47:54.465Z,50.30
2023-06-14T12:50:27.130Z,49.60
2023-06-14T12:52:56.073Z,49.30
2023-06-14T12:55:24.865Z,49.00
2023-06-14T12:57:53.598Z,49.10
2023-06-14T14:14:35.966Z,43.00
2023-06-14T14:26:50.687Z,42.90
2023-06-14T14:29:19.945Z,42.70
2023-06-14T14:31:49.053Z,43.10
2023-06-14T14:34:18.654Z,42.90
2023-06-14T14:36:50.139Z,42.80
2023-06-14T14:39:18.884Z,42.50
2023-06-14T14:41:48.406Z,42.90
2023-06-14T14:44:20.012Z,42.30
2023-06-14T14:46:48.980Z,43.20
2023-06-14T14:49:17.529Z,42.90
2023-06-14T14:51:46.100Z,42.00
2023-06-14T14:54:14.632Z,41.90
2023-06-14T14:56:43.793Z,42.00
2023-06-14T14:59:12.555Z,41.50
2023-06-14T15:01:43.127Z,41.20
2023-06-14T15:04:11.595Z,41.70
2023-06-14T15:06:41.433Z,41.20
2023-06-14T15:09:09.984Z,41.30
2023-06-14T15:11:38.160Z,41.50
2023-06-14T15:14:06.395Z,42.20
2023-06-14T15:16:35.513Z,42.80
2023-06-14T15:19:05.580Z,43.10
2023-06-14T15:21:34.066Z,44.20
2023-06-14T15:24:02.592Z,45.60
2023-06-14T15:26:31.053Z,47.20
2023-06-14T15:28:59.688Z,47.10
2023-06-14T15:31:29.183Z,48.00
2023-06-14T15:33:57.958Z,48.00
2023-06-14T15:36:28.480Z,49.00
2023-06-14T15:38:56.650Z,49.60
2023-06-14T15:41:25.582Z,49.90
2023-06-14T15:43:53.555Z,49.70
2023-06-14T15:46:23.689Z,50.10
2023-06-14T15:48:52.661Z,50.30
2023-06-14T15:51:21.681Z,50.40
2023-06-14T15:53:51.508Z,49.60
2023-06-14T15:56:20.856Z,50.50
2023-06-14T15:58:52.567Z,50.20
2023-06-14T16:01:21.788Z,50.30
2023-06-14T16:03:50.544Z,49.50
2023-06-14T16:06:18.882Z,49.10
2023-06-14T16:08:48.041Z,48.80
2023-06-14T16:11:17.757Z,48.20
2023-06-14T16:13:48.245Z,47.60
2023-06-14T16:16:17.139Z,47.30
2023-06-14T16:18:45.375Z,47.20
2023-06-14T16:21:14.103Z,48.10
2023-06-14T16:23:42.590Z,48.40
2023-06-14T16:26:14.291Z,48.60
2023-06-14T16:28:45.363Z,48.90
2023-06-14T16:31:16.976Z,49.30
2023-06-14T16:33:46.011Z,49.60
2023-06-14T16:36:14.596Z,51.40
2023-06-14T16:38:43.451Z,52.60
2023-06-14T16:41:14.324Z,53.60
2023-06-14T16:43:45.302Z,54.60
2023-06-14T16:46:17.085Z,54.90
2023-06-14T16:48:45.790Z,55.70
2023-06-14T16:51:13.860Z,55.70
2023-06-14T16:53:42.625Z,56.10
2023-06-14T16:56:11.062Z,56.10
2023-06-14T16:58:39.472Z,56.10
2023-06-14T17:01:10.165Z,56.50
2023-06-14T17:03:38.673Z,56.30
2023-06-14T17:06:07.749Z,56.80
2023-06-14T17:08:36.668Z,57.10
2023-06-14T17:11:06.318Z,57.40
2023-06-14T17:13:35.068Z,58.40
2023-06-14T17:16:06.556Z,58.40
2023-06-14T17:18:39.076Z,58.70
2023-06-14T17:21:07.523Z,59.40
2023-06-14T17:23:36.190Z,59.20
2023-06-14T17:26:05.036Z,59.80
2023-06-14T17:28:36.101Z,59.70
2023-06-14T17:31:04.804Z,59.60
2023-06-14T17:33:33.631Z,59.90
2023-06-14T17:36:03.706Z,60.40
2023-06-14T17:38:32.059Z,60.30
2023-06-14T17:41:02.281Z,60.20
2023-06-14T17:43:31.217Z,60.40
2023-06-14T17:45:59.821Z,60.90
2023-06-14T17:48:34.255Z,61.80
2023-06-14T17:51:06.087Z,61.70
2023-06-14T17:53:36.038Z,62.30
2023-06-14T17:56:05.819Z,62.50
2023-06-14T17:58:34.596Z,63.10
2023-06-14T18:01:02.965Z,63.80
2023-06-14T18:03:32.234Z,64.00
2023-06-14T18:06:01.380Z,64.50
2023-06-14T18:08:31.619Z,64.50
2023-06-14T18:10:59.876Z,64.80
2023-06-14T18:13:28.996Z,65.20
2023-06-14T18:15:59.195Z,65.60
2023-06-14T18:18:28.073Z,65.90
2023-06-14T18:20:56.506Z,66.10
2023-06-14T18:23:25.419Z,65.90
2023-06-14T18:25:55.421Z,66.10
2023-06-14T18:28:23.678Z,66.30
2023-06-14T18:30:51.894Z,66.50
2023-06-14T18:33:21.049Z,66.50
2023-06-14T18:35:49.285Z,67.10
2023-06-14T18:38:18.494Z,67.50
2023-06-14T18:40:46.816Z,67.90
2023-06-14T18:43:16.384Z,68.30
2023-06-14T18:45:44.654Z,69.00
2023-06-14T18:48:13.025Z,69.40
2023-06-14T18:50:42.190Z,70.00
2023-06-14T18:53:11.158Z,69.90
2023-06-14T18:55:39.335Z,70.30
2023-06-14T18:58:07.743Z,70.70
2023-06-14T19:00:38.000Z,71.30
2023-06-14T19:03:06.933Z,72.20
2023-06-14T19:05:35.406Z,72.50
2023-06-14T19:08:03.639Z,73.40
2023-06-14T19:10:32.457Z,73.50
2023-06-14T19:13:00.763Z,74.10
2023-06-14T19:15:31.309Z,75.10
2023-06-14T19:18:03.680Z,76.00
2023-06-14T19:20:32.495Z,75.80
2023-06-14T19:23:03.919Z,76.10
2023-06-14T19:25:32.402Z,77.70
2023-06-14T19:28:00.793Z,78.40
2023-06-14T19:30:29.372Z,79.00
2023-06-14T19:32:57.696Z,79.30
2023-06-14T19:35:27.615Z,79.60
2023-06-14T19:37:55.794Z,80.00
2023-06-14T19:40:24.360Z,80.30
2023-06-14T19:42:52.746Z,80.70
2023-06-14T19:45:21.713Z,81.20
2023-06-14T19:47:51.326Z,81.40
2023-06-14T19:50:19.954Z,81.40
2023-06-14T19:52:50.042Z,81.70
2023-06-14T19:55:19.175Z,83.20
2023-06-14T19:57:48.262Z,82.90
2023-06-14T20:00:18.202Z,83.20
2023-06-14T20:02:46.954Z,83.60
2023-06-14T20:05:15.522Z,84.20
2023-06-14T20:07:43.922Z,84.40
2023-06-14T20:10:14.871Z,84.70
2023-06-14T20:12:43.181Z,85.10
2023-06-14T20:15:12.721Z,85.30
2023-06-14T20:17:41.078Z,86.40
2023-06-14T20:20:10.279Z,86.00
2023-06-14T20:22:39.930Z,86.10
2023-06-14T20:25:10.710Z,86.50
2023-06-14T20:27:40.962Z,86.80
2023-06-14T20:30:10.685Z,86.80
2023-06-14T20:32:39.078Z,87.00
2023-06-14T20:35:08.062Z,86.90
2023-06-14T20:37:36.308Z,87.00
2023-06-14T20:40:07.841Z,87.20
2023-06-14T20:42:36.909Z,87.40
2023-06-14T20:45:08.786Z,87.50
2023-06-14T20:47:38.094Z,87.70
2023-06-14T20:50:09.416Z,88.00
2023-06-14T20:52:38.517Z,88.20
2023-06-14T20:55:08.378Z,88.60
2023-06-14T20:57:37.377Z,88.80
2023-06-14T21:00:11.935Z,89.10
2023-06-14T21:02:42.563Z,89.50
2023-06-14T21:05:11.227Z,89.70
2023-06-14T21:07:40.113Z,90.00
2023-06-14T21:10:09.576Z,90.30
2023-06-14T21:12:38.903Z,90.30
2023-06-14T21:15:11.055Z,90.40
2023-06-14T21:17:40.839Z,90.30
2023-06-14T21:20:10.740Z,90.40
2023-06-14T21:22:39.794Z,90.50
2023-06-14T21:25:09.861Z,90.70
2023-06-14T21:27:38.483Z,90.80
2023-06-14T21:30:11.101Z,90.90
2023-06-14T21:32:40.829Z,91.10
2023-06-14T21:35:12.451Z,91.30
2023-06-14T21:37:40.835Z,91.50
2023-06-14T21:40:10.498Z,91.80
2023-06-14T21:42:42.391Z,92.10
2023-06-14T21:45:14.667Z,92.00
2023-06-14T21:47:43.499Z,92.20
2023-06-14T21:50:13.122Z,92.40
2023-06-14T21:52:41.376Z,92.50
2023-06-14T21:55:10.419Z,92.70
2023-06-14T21:57:39.050Z,92.80
2023-06-14T22:00:18.061Z,92.90
2023-06-14T22:02:50.394Z,93.00
2023-06-14T22:05:19.610Z,93.10
2023-06-14T22:07:49.732Z,93.20
2023-06-14T22:10:20.486Z,93.30
2023-06-14T22:12:50.333Z,93.20
2023-06-14T22:15:21.455Z,93.30
2023-06-14T22:17:50.605Z,93.30
2023-06-14T22:20:21.335Z,93.40
2023-06-14T22:22:51.144Z,93.70
2023-06-14T22:25:19.804Z,93.50
2023-06-14T22:27:48.576Z,93.50
2023-06-14T22:30:19.978Z,93.50
2023-06-14T22:32:50.433Z,93.60
2023-06-14T22:35:19.896Z,93.50
2023-06-14T22:37:49.018Z,93.60
2023-06-14T22:40:17.739Z,93.60
2023-06-14T22:42:50.393Z,93.60
2023-06-14T22:45:26.124Z,93.60
2023-06-14T22:47:56.919Z,93.60
2023-06-14T22:50:25.336Z,93.70
2023-06-14T22:52:53.984Z,94.00
2023-06-14T22:55:27.501Z,94.10
2023-06-14T22:57:56.491Z,94.10
2023-06-14T23:00:26.557Z,94.20
2023-06-14T23:02:55.742Z,94.20
2023-06-14T23:05:24.211Z,94.20
2023-06-14T23:07:53.776Z,94.20
2023-06-14T23:10:24.144Z,94.10
2023-06-14T23:12:52.680Z,94.10
2023-06-14T23:15:20.958Z,93.90
2023-06-14T23:17:51.758Z,93.80
2023-06-14T23:20:21.502Z,93.80
2023-06-14T23:22:50.761Z,93.90
2023-06-14T23:25:19.592Z,94.10
2023-06-14T23:27:49.957Z,94.10
2023-06-14T23:30:18.574Z,94.20
2023-06-14T23:32:51.180Z,94.30
2023-06-14T23:35:22.548Z,94.20
2023-06-14T23:37:51.731Z,94.10
2023-06-14T23:40:20.371Z,94.10
2023-06-14T23:42:51.850Z,93.90
2023-06-14T23:45:20.753Z,93.80
2023-06-14T23:47:49.340Z,93.80
2023-06-14T23:50:18.829Z,93.80
2023-06-14T23:52:48.723Z,93.80
2023-06-14T23:55:21.769Z,93.90
2023-06-14T23:57:51.777Z,94.40
